sensor_id;sensor_type;location;lat;lon;timestamp;P1;durP1;ratioP1;P2;durP2;ratioP2
70148;SDS011;57514;52.164;5.282;2024-03-29T00:01:37;9.13;;;1.67;;
70148;SDS011;57514;52.164;5.282;2024-03-29T00:04:04;4.90;;;1.27;;
70148;SDS011;57514;52.164;5.282;2024-03-29T00:06:30;2.83;;;1.10;;
70148;SDS011;57514;52.164;5.282;2024-03-29T00:08:57;6.22;;;1.13;;
70148;SDS011;57514;52.164;5.282;2024-03-29T00:11:24;4.63;;;1.45;;
70148;SDS011;57514;52.164;5.282;2024-03-29T00:13:50;3.92;;;1.25;;
70148;SDS011;57514;52.164;5.282;2024-03-29T00:16:16;8.40;;;1.25;;
70148;SDS011;57514;52.164;5.282;2024-03-29T00:18:43;7.13;;;1.48;;
70148;SDS011;57514;52.164;5.282;2024-03-29T00:21:09;4.47;;;1.10;;
70148;SDS011;57514;52.164;5.282;2024-03-29T00:23:35;8.10;;;1.23;;
70148;SDS011;57514;52.164;5.282;2024-03-29T00:26:02;5.15;;;1.25;;
70148;SDS011;57514;52.164;5.282;2024-03-29T00:28:29;5.15;;;1.30;;
70148;SDS011;57514;52.164;5.282;2024-03-29T00:30:55;3.75;;;1.23;;
70148;SDS011;57514;52.164;5.282;2024-03-29T00:33:21;5.85;;;1.63;;
70148;SDS011;57514;52.164;5.282;2024-03-29T00:35:48;1.73;;;1.00;;
70148;SDS011;57514;52.164;5.282;2024-03-29T00:38:14;7.65;;;1.77;;
70148;SDS011;57514;52.164;5.282;2024-03-29T00:40:40;5.88;;;1.42;;
70148;SDS011;57514;52.164;5.282;2024-03-29T00:43:06;6.60;;;1.67;;
70148;SDS011;57514;52.164;5.282;2024-03-29T00:45:33;5.90;;;1.67;;
70148;SDS011;57514;52.164;5.282;2024-03-29T00:47:59;6.88;;;1.63;;
70148;SDS011;57514;52.164;5.282;2024-03-29T00:50:25;5.05;;;1.08;;
70148;SDS011;57514;52.164;5.282;2024-03-29T00:52:51;5.03;;;1.23;;
70148;SDS011;57514;52.164;5.282;2024-03-29T00:55:18;2.13;;;1.10;;
70148;SDS011;57514;52.164;5.282;2024-03-29T00:57:44;2.53;;;1.15;;
70148;SDS011;57514;52.164;5.282;2024-03-29T01:00:10;4.25;;;1.20;;
70148;SDS011;57514;52.164;5.282;2024-03-29T01:02:36;6.70;;;1.73;;
70148;SDS011;57514;52.164;5.282;2024-03-29T01:05:03;4.30;;;1.25;;
70148;SDS011;57514;52.164;5.282;2024-03-29T01:07:29;2.22;;;1.05;;
70148;SDS011;57514;52.164;5.282;2024-03-29T01:09:56;4.45;;;1.52;;
70148;SDS011;57514;52.164;5.282;2024-03-29T01:12:22;6.30;;;1.67;;
70148;SDS011;57514;52.164;5.282;2024-03-29T01:14:48;3.67;;;1.23;;
70148;SDS011;57514;52.164;5.282;2024-03-29T01:17:14;6.30;;;1.30;;
70148;SDS011;57514;52.164;5.282;2024-03-29T01:19:41;3.53;;;0.98;;
70148;SDS011;57514;52.164;5.282;2024-03-29T01:22:07;4.40;;;1.08;;
70148;SDS011;57514;52.164;5.282;2024-03-29T01:24:33;1.50;;;0.93;;
70148;SDS011;57514;52.164;5.282;2024-03-29T01:26:59;4.63;;;1.40;;
70148;SDS011;57514;52.164;5.282;2024-03-29T01:29:26;2.95;;;1.02;;
70148;SDS011;57514;52.164;5.282;2024-03-29T01:31:53;2.58;;;1.15;;
70148;SDS011;57514;52.164;5.282;2024-03-29T01:34:19;6.32;;;1.48;;
70148;SDS011;57514;52.164;5.282;2024-03-29T01:36:46;2.97;;;1.02;;
70148;SDS011;57514;52.164;5.282;2024-03-29T01:39:12;5.03;;;1.35;;
70148;SDS011;57514;52.164;5.282;2024-03-29T01:41:41;4.10;;;1.90;;
70148;SDS011;57514;52.164;5.282;2024-03-29T01:44:07;5.97;;;1.50;;
70148;SDS011;57514;52.164;5.282;2024-03-29T01:46:35;2.90;;;0.98;;
70148;SDS011;57514;52.164;5.282;2024-03-29T01:49:02;4.10;;;1.15;;
70148;SDS011;57514;52.164;5.282;2024-03-29T01:51:29;4.82;;;1.50;;
70148;SDS011;57514;52.164;5.282;2024-03-29T01:53:56;5.72;;;1.42;;
70148;SDS011;57514;52.164;5.282;2024-03-29T01:56:22;4.20;;;1.13;;
70148;SDS011;57514;52.164;5.282;2024-03-29T01:58:49;5.15;;;1.50;;
70148;SDS011;57514;52.164;5.282;2024-03-29T02:01:15;3.67;;;1.10;;
70148;SDS011;57514;52.164;5.282;2024-03-29T02:03:42;3.60;;;1.35;;
70148;SDS011;57514;52.164;5.282;2024-03-29T02:06:09;2.38;;;1.13;;
70148;SDS011;57514;52.164;5.282;2024-03-29T02:08:36;3.97;;;1.35;;
70148;SDS011;57514;52.164;5.282;2024-03-29T02:11:02;6.43;;;1.50;;
70148;SDS011;57514;52.164;5.282;2024-03-29T02:13:29;5.38;;;1.25;;
70148;SDS011;57514;52.164;5.282;2024-03-29T02:15:55;3.75;;;1.33;;
70148;SDS011;57514;52.164;5.282;2024-03-29T02:18:21;5.30;;;1.35;;
70148;SDS011;57514;52.164;5.282;2024-03-29T02:20:48;2.20;;;1.02;;
70148;SDS011;57514;52.164;5.282;2024-03-29T02:23:16;4.30;;;1.23;;
70148;SDS011;57514;52.164;5.282;2024-03-29T02:25:44;5.95;;;1.23;;
70148;SDS011;57514;52.164;5.282;2024-03-29T02:28:10;3.60;;;1.40;;
70148;SDS011;57514;52.164;5.282;2024-03-29T02:30:37;1.65;;;0.95;;
70148;SDS011;57514;52.164;5.282;2024-03-29T02:33:03;3.05;;;1.13;;
70148;SDS011;57514;52.164;5.282;2024-03-29T02:35:29;5.88;;;1.25;;
70148;SDS011;57514;52.164;5.282;2024-03-29T02:37:56;5.00;;;1.48;;
70148;SDS011;57514;52.164;5.282;2024-03-29T02:40:23;3.85;;;1.23;;
70148;SDS011;57514;52.164;5.282;2024-03-29T02:42:49;4.95;;;1.23;;
70148;SDS011;57514;52.164;5.282;2024-03-29T02:45:16;3.97;;;1.05;;
70148;SDS011;57514;52.164;5.282;2024-03-29T02:47:42;4.72;;;1.17;;
70148;SDS011;57514;52.164;5.282;2024-03-29T02:50:09;3.35;;;1.30;;
70148;SDS011;57514;52.164;5.282;2024-03-29T02:52:36;4.90;;;1.23;;
70148;SDS011;57514;52.164;5.282;2024-03-29T02:55:04;5.60;;;1.42;;
70148;SDS011;57514;52.164;5.282;2024-03-29T02:57:31;6.95;;;1.25;;
70148;SDS011;57514;52.164;5.282;2024-03-29T02:59:57;2.95;;;0.98;;
70148;SDS011;57514;52.164;5.282;2024-03-29T03:02:24;4.55;;;1.10;;
70148;SDS011;57514;52.164;5.282;2024-03-29T03:04:50;10.30;;;1.50;;
70148;SDS011;57514;52.164;5.282;2024-03-29T03:07:16;2.83;;;0.95;;
70148;SDS011;57514;52.164;5.282;2024-03-29T03:10:01;5.22;;;1.48;;
70148;SDS011;57514;52.164;5.282;2024-03-29T03:12:46;5.32;;;1.23;;
70148;SDS011;57514;52.164;5.282;2024-03-29T03:15:12;2.75;;;1.02;;
70148;SDS011;57514;52.164;5.282;2024-03-29T03:17:38;4.07;;;1.35;;
70148;SDS011;57514;52.164;5.282;2024-03-29T03:20:05;5.80;;;1.33;;
70148;SDS011;57514;52.164;5.282;2024-03-29T03:22:32;4.95;;;1.33;;
70148;SDS011;57514;52.164;5.282;2024-03-29T03:24:58;2.38;;;0.82;;
70148;SDS011;57514;52.164;5.282;2024-03-29T03:27:24;3.33;;;1.20;;
70148;SDS011;57514;52.164;5.282;2024-03-29T03:29:50;5.15;;;1.73;;
70148;SDS011;57514;52.164;5.282;2024-03-29T03:32:17;4.65;;;1.38;;
70148;SDS011;57514;52.164;5.282;2024-03-29T03:34:43;4.10;;;1.15;;
70148;SDS011;57514;52.164;5.282;2024-03-29T03:37:09;6.18;;;1.10;;
70148;SDS011;57514;52.164;5.282;2024-03-29T03:39:36;5.05;;;1.23;;
70148;SDS011;57514;52.164;5.282;2024-03-29T03:42:02;4.45;;;1.17;;
70148;SDS011;57514;52.164;5.282;2024-03-29T03:44:28;5.03;;;1.02;;
70148;SDS011;57514;52.164;5.282;2024-03-29T03:46:55;5.30;;;1.15;;
70148;SDS011;57514;52.164;5.282;2024-03-29T03:49:21;4.55;;;1.02;;
70148;SDS011;57514;52.164;5.282;2024-03-29T03:51:47;4.72;;;1.52;;
70148;SDS011;57514;52.164;5.282;2024-03-29T03:54:14;3.80;;;0.88;;
70148;SDS011;57514;52.164;5.282;2024-03-29T03:56:40;1.75;;;1.00;;
70148;SDS011;57514;52.164;5.282;2024-03-29T03:59:06;2.33;;;1.10;;
70148;SDS011;57514;52.164;5.282;2024-03-29T04:01:34;3.15;;;1.02;;
70148;SDS011;57514;52.164;5.282;2024-03-29T04:04:00;4.10;;;1.40;;
70148;SDS011;57514;52.164;5.282;2024-03-29T04:06:26;6.13;;;1.33;;
70148;SDS011;57514;52.164;5.282;2024-03-29T04:08:52;4.57;;;1.20;;
70148;SDS011;57514;52.164;5.282;2024-03-29T04:11:19;2.42;;;1.10;;
70148;SDS011;57514;52.164;5.282;2024-03-29T04:13:45;2.42;;;1.08;;
70148;SDS011;57514;52.164;5.282;2024-03-29T04:16:12;5.82;;;1.05;;
70148;SDS011;57514;52.164;5.282;2024-03-29T04:18:38;3.40;;;1.33;;
70148;SDS011;57514;52.164;5.282;2024-03-29T04:21:04;2.47;;;1.02;;
70148;SDS011;57514;52.164;5.282;2024-03-29T04:23:31;2.42;;;0.82;;
70148;SDS011;57514;52.164;5.282;2024-03-29T04:25:58;1.65;;;1.10;;
70148;SDS011;57514;52.164;5.282;2024-03-29T04:28:25;2.50;;;1.00;;
70148;SDS011;57514;52.164;5.282;2024-03-29T04:30:55;3.75;;;1.33;;
70148;SDS011;57514;52.164;5.282;2024-03-29T04:33:21;3.72;;;1.20;;
70148;SDS011;57514;52.164;5.282;2024-03-29T04:38:20;6.88;;;1.20;;
70148;SDS011;57514;52.164;5.282;2024-03-29T04:40:46;1.85;;;1.02;;
70148;SDS011;57514;52.164;5.282;2024-03-29T04:43:13;3.85;;;1.15;;
70148;SDS011;57514;52.164;5.282;2024-03-29T04:45:39;4.00;;;1.00;;
70148;SDS011;57514;52.164;5.282;2024-03-29T04:48:05;2.13;;;1.27;;
70148;SDS011;57514;52.164;5.282;2024-03-29T04:50:32;3.15;;;1.33;;
70148;SDS011;57514;52.164;5.282;2024-03-29T04:52:58;3.75;;;1.13;;
70148;SDS011;57514;52.164;5.282;2024-03-29T04:55:24;4.03;;;1.15;;
70148;SDS011;57514;52.164;5.282;2024-03-29T04:57:51;6.35;;;1.23;;
70148;SDS011;57514;52.164;5.282;2024-03-29T05:00:17;2.47;;;0.95;;
70148;SDS011;57514;52.164;5.282;2024-03-29T05:02:44;1.23;;;0.85;;
70148;SDS011;57514;52.164;5.282;2024-03-29T05:05:10;2.58;;;0.85;;
70148;SDS011;57514;52.164;5.282;2024-03-29T05:07:36;1.02;;;0.73;;
70148;SDS011;57514;52.164;5.282;2024-03-29T05:10:03;1.50;;;0.82;;
70148;SDS011;57514;52.164;5.282;2024-03-29T05:12:33;1.52;;;0.52;;
70148;SDS011;57514;52.164;5.282;2024-03-29T05:14:59;1.00;;;0.60;;
70148;SDS011;57514;52.164;5.282;2024-03-29T05:17:25;1.13;;;0.85;;
70148;SDS011;57514;52.164;5.282;2024-03-29T05:19:53;2.28;;;0.88;;
70148;SDS011;57514;52.164;5.282;2024-03-29T05:22:19;2.42;;;1.10;;
70148;SDS011;57514;52.164;5.282;2024-03-29T05:24:45;1.02;;;0.60;;
70148;SDS011;57514;52.164;5.282;2024-03-29T05:27:12;3.85;;;0.77;;
70148;SDS011;57514;52.164;5.282;2024-03-29T05:29:39;1.23;;;0.88;;
70148;SDS011;57514;52.164;5.282;2024-03-29T05:32:06;2.38;;;0.73;;
70148;SDS011;57514;52.164;5.282;2024-03-29T05:34:32;1.67;;;0.95;;
70148;SDS011;57514;52.164;5.282;2024-03-29T05:36:59;4.70;;;1.50;;
70148;SDS011;57514;52.164;5.282;2024-03-29T05:39:25;3.53;;;0.82;;
70148;SDS011;57514;52.164;5.282;2024-03-29T05:41:51;1.33;;;0.85;;
70148;SDS011;57514;52.164;5.282;2024-03-29T05:44:17;0.70;;;0.70;;
70148;SDS011;57514;52.164;5.282;2024-03-29T05:46:44;1.90;;;0.82;;
70148;SDS011;57514;52.164;5.282;2024-03-29T05:49:10;1.23;;;0.60;;
70148;SDS011;57514;52.164;5.282;2024-03-29T05:51:36;1.00;;;0.90;;
70148;SDS011;57514;52.164;5.282;2024-03-29T05:54:03;1.52;;;0.55;;
70148;SDS011;57514;52.164;5.282;2024-03-29T05:56:29;3.55;;;0.93;;
70148;SDS011;57514;52.164;5.282;2024-03-29T05:58:55;2.97;;;0.90;;
70148;SDS011;57514;52.164;5.282;2024-03-29T06:01:22;2.13;;;0.93;;
70148;SDS011;57514;52.164;5.282;2024-03-29T06:03:49;1.75;;;0.65;;
70148;SDS011;57514;52.164;5.282;2024-03-29T06:06:20;0.43;;;0.43;;
70148;SDS011;57514;52.164;5.282;2024-03-29T06:08:50;1.25;;;0.52;;
70148;SDS011;57514;52.164;5.282;2024-03-29T06:11:16;1.88;;;0.52;;
70148;SDS011;57514;52.164;5.282;2024-03-29T06:13:42;2.42;;;0.65;;
70148;SDS011;57514;52.164;5.282;2024-03-29T06:16:19;4.32;;;0.90;;
70148;SDS011;57514;52.164;5.282;2024-03-29T06:19:04;0.68;;;0.52;;
70148;SDS011;57514;52.164;5.282;2024-03-29T06:21:30;1.48;;;0.70;;
70148;SDS011;57514;52.164;5.282;2024-03-29T06:24:06;2.88;;;0.52;;
70148;SDS011;57514;52.164;5.282;2024-03-29T06:26:33;2.75;;;0.82;;
70148;SDS011;57514;52.164;5.282;2024-03-29T06:29:00;1.05;;;0.63;;
70148;SDS011;57514;52.164;5.282;2024-03-29T06:31:26;1.85;;;0.52;;
70148;SDS011;57514;52.164;5.282;2024-03-29T06:33:53;3.55;;;0.70;;
70148;SDS011;57514;52.164;5.282;2024-03-29T06:36:19;1.50;;;0.80;;
70148;SDS011;57514;52.164;5.282;2024-03-29T06:38:46;1.98;;;0.52;;
70148;SDS011;57514;52.164;5.282;2024-03-29T06:41:12;3.33;;;1.10;;
70148;SDS011;57514;52.164;5.282;2024-03-29T06:43:41;1.02;;;0.57;;
70148;SDS011;57514;52.164;5.282;2024-03-29T06:46:11;1.90;;;0.60;;
70148;SDS011;57514;52.164;5.282;2024-03-29T06:48:37;1.73;;;0.63;;
70148;SDS011;57514;52.164;5.282;2024-03-29T06:51:03;1.35;;;0.68;;
70148;SDS011;57514;52.164;5.282;2024-03-29T06:53:30;1.02;;;0.60;;
70148;SDS011;57514;52.164;5.282;2024-03-29T06:55:56;1.83;;;0.70;;
70148;SDS011;57514;52.164;5.282;2024-03-29T06:58:23;2.22;;;0.50;;
70148;SDS011;57514;52.164;5.282;2024-03-29T07:00:49;1.05;;;0.63;;
70148;SDS011;57514;52.164;5.282;2024-03-29T07:03:16;3.38;;;0.52;;
70148;SDS011;57514;52.164;5.282;2024-03-29T07:05:44;1.00;;;0.32;;
70148;SDS011;57514;52.164;5.282;2024-03-29T07:08:11;3.03;;;0.88;;
70148;SDS011;57514;52.164;5.282;2024-03-29T07:10:37;1.23;;;0.43;;
70148;SDS011;57514;52.164;5.282;2024-03-29T07:13:06;2.17;;;0.65;;
70148;SDS011;57514;52.164;5.282;2024-03-29T07:15:32;1.20;;;0.50;;
70148;SDS011;57514;52.164;5.282;2024-03-29T07:17:59;3.38;;;0.93;;
70148;SDS011;57514;52.164;5.282;2024-03-29T07:20:28;1.85;;;1.20;;
70148;SDS011;57514;52.164;5.282;2024-03-29T07:22:55;0.63;;;0.52;;
70148;SDS011;57514;52.164;5.282;2024-03-29T07:25:21;1.20;;;0.43;;
70148;SDS011;57514;52.164;5.282;2024-03-29T07:27:48;2.28;;;0.63;;
70148;SDS011;57514;52.164;5.282;2024-03-29T07:30:15;0.43;;;0.43;;
70148;SDS011;57514;52.164;5.282;2024-03-29T07:32:42;0.60;;;0.43;;
70148;SDS011;57514;52.164;5.282;2024-03-29T07:35:08;0.80;;;0.40;;
70148;SDS011;57514;52.164;5.282;2024-03-29T07:37:35;3.13;;;0.90;;
70148;SDS011;57514;52.164;5.282;2024-03-29T07:40:01;2.40;;;0.57;;
70148;SDS011;57514;52.164;5.282;2024-03-29T07:42:29;1.02;;;0.60;;
70148;SDS011;57514;52.164;5.282;2024-03-29T07:44:55;2.95;;;0.43;;
70148;SDS011;57514;52.164;5.282;2024-03-29T07:47:21;1.90;;;0.50;;
70148;SDS011;57514;52.164;5.282;2024-03-29T07:49:51;0.47;;;0.40;;
70148;SDS011;57514;52.164;5.282;2024-03-29T07:52:17;1.13;;;0.55;;
70148;SDS011;57514;52.164;5.282;2024-03-29T07:54:44;0.85;;;0.20;;
70148;SDS011;57514;52.164;5.282;2024-03-29T07:57:11;1.40;;;0.40;;
70148;SDS011;57514;52.164;5.282;2024-03-29T07:59:40;1.55;;;0.30;;
70148;SDS011;57514;52.164;5.282;2024-03-29T08:02:06;0.82;;;0.40;;
70148;SDS011;57514;52.164;5.282;2024-03-29T08:04:32;0.43;;;0.30;;
70148;SDS011;57514;52.164;5.282;2024-03-29T08:06:59;0.68;;;0.28;;
70148;SDS011;57514;52.164;5.282;2024-03-29T08:09:25;0.70;;;0.28;;
70148;SDS011;57514;52.164;5.282;2024-03-29T08:11:51;0.90;;;0.35;;
70148;SDS011;57514;52.164;5.282;2024-03-29T08:14:17;1.95;;;0.80;;
70148;SDS011;57514;52.164;5.282;2024-03-29T08:16:44;2.15;;;0.40;;
70148;SDS011;57514;52.164;5.282;2024-03-29T08:19:10;0.82;;;0.60;;
70148;SDS011;57514;52.164;5.282;2024-03-29T08:21:36;1.95;;;0.68;;
70148;SDS011;57514;52.164;5.282;2024-03-29T08:24:03;2.97;;;0.73;;
70148;SDS011;57514;52.164;5.282;2024-03-29T08:26:29;1.60;;;0.60;;
70148;SDS011;57514;52.164;5.282;2024-03-29T08:28:56;1.52;;;0.75;;
70148;SDS011;57514;52.164;5.282;2024-03-29T08:31:23;1.13;;;0.88;;
70148;SDS011;57514;52.164;5.282;2024-03-29T08:33:50;1.70;;;1.10;;
70148;SDS011;57514;52.164;5.282;2024-03-29T08:36:16;2.70;;;0.80;;
70148;SDS011;57514;52.164;5.282;2024-03-29T08:38:42;2.08;;;0.93;;
70148;SDS011;57514;52.164;5.282;2024-03-29T08:41:10;2.15;;;0.70;;
70148;SDS011;57514;52.164;5.282;2024-03-29T08:43:37;1.02;;;0.65;;
70148;SDS011;57514;52.164;5.282;2024-03-29T08:46:03;3.10;;;1.00;;
70148;SDS011;57514;52.164;5.282;2024-03-29T08:48:29;2.20;;;0.93;;
70148;SDS011;57514;52.164;5.282;2024-03-29T08:50:55;2.38;;;0.80;;
70148;SDS011;57514;52.164;5.282;2024-03-29T08:53:22;2.17;;;0.93;;
70148;SDS011;57514;52.164;5.282;2024-03-29T08:55:48;1.58;;;0.90;;
70148;SDS011;57514;52.164;5.282;2024-03-29T08:58:14;1.30;;;1.00;;
70148;SDS011;57514;52.164;5.282;2024-03-29T09:00:41;1.85;;;0.93;;
70148;SDS011;57514;52.164;5.282;2024-03-29T09:03:07;0.88;;;0.82;;
70148;SDS011;57514;52.164;5.282;2024-03-29T09:05:33;2.70;;;0.93;;
70148;SDS011;57514;52.164;5.282;2024-03-29T09:08:02;4.00;;;1.00;;
70148;SDS011;57514;52.164;5.282;2024-03-29T09:10:28;1.77;;;0.90;;
70148;SDS011;57514;52.164;5.282;2024-03-29T09:12:55;1.13;;;0.73;;
70148;SDS011;57514;52.164;5.282;2024-03-29T09:15:21;2.25;;;0.90;;
70148;SDS011;57514;52.164;5.282;2024-03-29T09:17:47;2.75;;;0.93;;
70148;SDS011;57514;52.164;5.282;2024-03-29T09:20:14;0.70;;;0.70;;
70148;SDS011;57514;52.164;5.282;2024-03-29T09:22:40;1.20;;;0.75;;
70148;SDS011;57514;52.164;5.282;2024-03-29T09:25:06;1.42;;;0.80;;
70148;SDS011;57514;52.164;5.282;2024-03-29T09:27:39;1.83;;;1.30;;
70148;SDS011;57514;52.164;5.282;2024-03-29T09:30:08;1.83;;;0.82;;
70148;SDS011;57514;52.164;5.282;2024-03-29T09:32:38;0.82;;;0.70;;
70148;SDS011;57514;52.164;5.282;2024-03-29T09:35:05;3.97;;;1.45;;
70148;SDS011;57514;52.164;5.282;2024-03-29T09:37:31;3.92;;;1.25;;
70148;SDS011;57514;52.164;5.282;2024-03-29T09:40:02;2.05;;;1.00;;
70148;SDS011;57514;52.164;5.282;2024-03-29T09:42:29;3.05;;;1.27;;
70148;SDS011;57514;52.164;5.282;2024-03-29T09:44:58;1.90;;;1.10;;
70148;SDS011;57514;52.164;5.282;2024-03-29T09:47:26;4.32;;;1.10;;
70148;SDS011;57514;52.164;5.282;2024-03-29T09:49:53;3.13;;;0.90;;
70148;SDS011;57514;52.164;5.282;2024-03-29T09:52:19;1.38;;;0.82;;
70148;SDS011;57514;52.164;5.282;2024-03-29T09:54:46;2.83;;;1.35;;
70148;SDS011;57514;52.164;5.282;2024-03-29T09:57:12;3.15;;;1.23;;
70148;SDS011;57514;52.164;5.282;2024-03-29T09:59:38;2.83;;;1.00;;
70148;SDS011;57514;52.164;5.282;2024-03-29T10:02:10;3.30;;;1.20;;
70148;SDS011;57514;52.164;5.282;2024-03-29T10:04:37;3.08;;;1.23;;
70148;SDS011;57514;52.164;5.282;2024-03-29T10:07:04;3.47;;;1.52;;
70148;SDS011;57514;52.164;5.282;2024-03-29T10:09:30;2.70;;;0.77;;
70148;SDS011;57514;52.164;5.282;2024-03-29T10:11:58;2.55;;;1.27;;
70148;SDS011;57514;52.164;5.282;2024-03-29T10:14:25;4.45;;;1.38;;
70148;SDS011;57514;52.164;5.282;2024-03-29T10:16:52;4.07;;;1.63;;
70148;SDS011;57514;52.164;5.282;2024-03-29T10:19:19;1.58;;;1.08;;
70148;SDS011;57514;52.164;5.282;2024-03-29T10:21:46;2.92;;;1.27;;
70148;SDS011;57514;52.164;5.282;2024-03-29T10:24:13;4.60;;;1.45;;
70148;SDS011;57514;52.164;5.282;2024-03-29T10:26:42;5.13;;;2.40;;
70148;SDS011;57514;52.164;5.282;2024-03-29T10:29:09;3.63;;;1.13;;
70148;SDS011;57514;52.164;5.282;2024-03-29T10:31:36;4.65;;;1.20;;
70148;SDS011;57514;52.164;5.282;2024-03-29T10:34:05;3.10;;;1.17;;
70148;SDS011;57514;52.164;5.282;2024-03-29T10:36:31;3.15;;;1.13;;
70148;SDS011;57514;52.164;5.282;2024-03-29T10:39:09;2.97;;;1.23;;
70148;SDS011;57514;52.164;5.282;2024-03-29T10:41:38;2.78;;;1.20;;
70148;SDS011;57514;52.164;5.282;2024-03-29T10:44:06;1.90;;;1.10;;
70148;SDS011;57514;52.164;5.282;2024-03-29T10:46:38;2.53;;;1.35;;
70148;SDS011;57514;52.164;5.282;2024-03-29T10:49:08;2.70;;;1.23;;
70148;SDS011;57514;52.164;5.282;2024-03-29T10:51:40;2.58;;;1.20;;
70148;SDS011;57514;52.164;5.282;2024-03-29T10:54:12;1.13;;;0.93;;
70148;SDS011;57514;52.164;5.282;2024-03-29T10:56:40;7.55;;;2.75;;
70148;SDS011;57514;52.164;5.282;2024-03-29T11:02:12;10.20;;;3.45;;
70148;SDS011;57514;52.164;5.282;2024-03-29T11:04:46;5.95;;;2.22;;
70148;SDS011;57514;52.164;5.282;2024-03-29T11:07:15;2.92;;;1.38;;
70148;SDS011;57514;52.164;5.282;2024-03-29T11:09:47;3.72;;;1.50;;
70148;SDS011;57514;52.164;5.282;2024-03-29T11:12:18;2.97;;;1.50;;
70148;SDS011;57514;52.164;5.282;2024-03-29T11:14:46;3.10;;;1.17;;
70148;SDS011;57514;52.164;5.282;2024-03-29T11:17:13;3.88;;;2.20;;
70148;SDS011;57514;52.164;5.282;2024-03-29T11:19:39;5.07;;;1.98;;
70148;SDS011;57514;52.164;5.282;2024-03-29T11:22:06;2.38;;;1.30;;
70148;SDS011;57514;52.164;5.282;2024-03-29T11:24:33;3.00;;;1.23;;
70148;SDS011;57514;52.164;5.282;2024-03-29T11:27:11;4.80;;;1.90;;
70148;SDS011;57514;52.164;5.282;2024-03-29T11:29:41;5.85;;;2.00;;
70148;SDS011;57514;52.164;5.282;2024-03-29T11:32:08;2.28;;;1.20;;
70148;SDS011;57514;52.164;5.282;2024-03-29T11:34:42;3.17;;;1.52;;
70148;SDS011;57514;52.164;5.282;2024-03-29T11:37:10;3.55;;;1.60;;
70148;SDS011;57514;52.164;5.282;2024-03-29T11:39:38;4.38;;;1.45;;
70148;SDS011;57514;52.164;5.282;2024-03-29T11:42:04;3.55;;;1.63;;
70148;SDS011;57514;52.164;5.282;2024-03-29T11:44:31;2.20;;;1.20;;
70148;SDS011;57514;52.164;5.282;2024-03-29T11:46:57;3.97;;;1.15;;
70148;SDS011;57514;52.164;5.282;2024-03-29T11:49:23;3.10;;;1.42;;
70148;SDS011;57514;52.164;5.282;2024-03-29T11:51:50;2.65;;;1.15;;
70148;SDS011;57514;52.164;5.282;2024-03-29T11:54:16;2.08;;;1.02;;
70148;SDS011;57514;52.164;5.282;2024-03-29T11:56:42;0.98;;;0.88;;
70148;SDS011;57514;52.164;5.282;2024-03-29T11:59:09;2.08;;;0.88;;
70148;SDS011;57514;52.164;5.282;2024-03-29T12:01:35;1.75;;;1.00;;
70148;SDS011;57514;52.164;5.282;2024-03-29T12:04:04;1.27;;;0.68;;
70148;SDS011;57514;52.164;5.282;2024-03-29T12:06:31;2.25;;;1.00;;
70148;SDS011;57514;52.164;5.282;2024-03-29T12:08:57;6.75;;;1.23;;
70148;SDS011;57514;52.164;5.282;2024-03-29T12:11:24;2.78;;;1.13;;
70148;SDS011;57514;52.164;5.282;2024-03-29T12:13:52;3.38;;;1.20;;
70148;SDS011;57514;52.164;5.282;2024-03-29T12:16:19;3.13;;;1.00;;
70148;SDS011;57514;52.164;5.282;2024-03-29T12:18:46;5.80;;;1.45;;
70148;SDS011;57514;52.164;5.282;2024-03-29T12:21:13;2.10;;;1.20;;
70148;SDS011;57514;52.164;5.282;2024-03-29T12:23:46;2.00;;;1.25;;
70148;SDS011;57514;52.164;5.282;2024-03-29T12:26:12;2.83;;;1.55;;
70148;SDS011;57514;52.164;5.282;2024-03-29T12:28:39;3.47;;;1.67;;
70148;SDS011;57514;52.164;5.282;2024-03-29T12:31:08;2.65;;;1.80;;
70148;SDS011;57514;52.164;5.282;2024-03-29T12:33:35;3.22;;;1.48;;
70148;SDS011;57514;52.164;5.282;2024-03-29T12:36:07;4.43;;;1.52;;
70148;SDS011;57514;52.164;5.282;2024-03-29T12:38:33;3.08;;;1.60;;
70148;SDS011;57514;52.164;5.282;2024-03-29T12:41:00;4.90;;;2.17;;
70148;SDS011;57514;52.164;5.282;2024-03-29T12:43:26;6.05;;;2.53;;
70148;SDS011;57514;52.164;5.282;2024-03-29T12:45:53;4.03;;;2.22;;
70148;SDS011;57514;52.164;5.282;2024-03-29T12:48:20;3.75;;;1.98;;
70148;SDS011;57514;52.164;5.282;2024-03-29T12:50:50;4.93;;;2.67;;
70148;SDS011;57514;52.164;5.282;2024-03-29T12:53:18;5.05;;;3.00;;
70148;SDS011;57514;52.164;5.282;2024-03-29T12:55:46;4.43;;;2.78;;
70148;SDS011;57514;52.164;5.282;2024-03-29T12:58:13;4.40;;;2.28;;
70148;SDS011;57514;52.164;5.282;2024-03-29T13:00:40;6.03;;;3.25;;
70148;SDS011;57514;52.164;5.282;2024-03-29T13:03:07;6.20;;;3.25;;
70148;SDS011;57514;52.164;5.282;2024-03-29T13:05:37;5.40;;;3.17;;
70148;SDS011;57514;52.164;5.282;2024-03-29T13:08:07;7.30;;;4.57;;
70148;SDS011;57514;52.164;5.282;2024-03-29T13:10:36;30.38;;;13.85;;
70148;SDS011;57514;52.164;5.282;2024-03-29T13:13:02;5.05;;;2.97;;
70148;SDS011;57514;52.164;5.282;2024-03-29T13:15:32;5.38;;;3.35;;
70148;SDS011;57514;52.164;5.282;2024-03-29T13:17:59;6.53;;;3.70;;
70148;SDS011;57514;52.164;5.282;2024-03-29T13:20:26;6.15;;;3.75;;
70148;SDS011;57514;52.164;5.282;2024-03-29T13:22:53;5.35;;;2.90;;
70148;SDS011;57514;52.164;5.282;2024-03-29T13:25:21;6.53;;;3.47;;
70148;SDS011;57514;52.164;5.282;2024-03-29T13:27:51;6.47;;;3.75;;
70148;SDS011;57514;52.164;5.282;2024-03-29T13:30:21;6.65;;;3.80;;
70148;SDS011;57514;52.164;5.282;2024-03-29T13:32:48;6.18;;;3.40;;
70148;SDS011;57514;52.164;5.282;2024-03-29T13:35:14;6.70;;;3.55;;
70148;SDS011;57514;52.164;5.282;2024-03-29T13:37:42;7.60;;;3.88;;
70148;SDS011;57514;52.164;5.282;2024-03-29T13:40:09;6.95;;;2.92;;
70148;SDS011;57514;52.164;5.282;2024-03-29T13:42:38;6.45;;;2.83;;
70148;SDS011;57514;52.164;5.282;2024-03-29T13:47:32;5.53;;;2.80;;
70148;SDS011;57514;52.164;5.282;2024-03-29T13:49:58;3.22;;;1.55;;
70148;SDS011;57514;52.164;5.282;2024-03-29T13:52:25;5.68;;;2.70;;
70148;SDS011;57514;52.164;5.282;2024-03-29T13:57:21;4.70;;;2.13;;
70148;SDS011;57514;52.164;5.282;2024-03-29T13:59:48;3.28;;;2.15;;
70148;SDS011;57514;52.164;5.282;2024-03-29T14:02:18;4.43;;;2.35;;
70148;SDS011;57514;52.164;5.282;2024-03-29T14:04:45;6.72;;;2.80;;
70148;SDS011;57514;52.164;5.282;2024-03-29T14:07:12;4.07;;;2.00;;
70148;SDS011;57514;52.164;5.282;2024-03-29T14:09:40;4.82;;;2.25;;
70148;SDS011;57514;52.164;5.282;2024-03-29T14:12:07;5.03;;;2.42;;
70148;SDS011;57514;52.164;5.282;2024-03-29T14:14:33;5.10;;;2.45;;
70148;SDS011;57514;52.164;5.282;2024-03-29T14:17:00;3.92;;;2.20;;
70148;SDS011;57514;52.164;5.282;2024-03-29T14:19:30;4.63;;;1.98;;
70148;SDS011;57514;52.164;5.282;2024-03-29T14:22:00;3.70;;;2.00;;
70148;SDS011;57514;52.164;5.282;2024-03-29T14:24:26;4.57;;;2.03;;
70148;SDS011;57514;52.164;5.282;2024-03-29T14:26:53;5.78;;;2.08;;
70148;SDS011;57514;52.164;5.282;2024-03-29T14:29:20;3.08;;;1.52;;
70148;SDS011;57514;52.164;5.282;2024-03-29T14:31:50;6.10;;;2.30;;
70148;SDS011;57514;52.164;5.282;2024-03-29T14:34:17;2.60;;;1.60;;
70148;SDS011;57514;52.164;5.282;2024-03-29T14:36:43;4.18;;;1.90;;
70148;SDS011;57514;52.164;5.282;2024-03-29T14:39:10;3.13;;;1.95;;
70148;SDS011;57514;52.164;5.282;2024-03-29T14:41:41;3.67;;;1.90;;
70148;SDS011;57514;52.164;5.282;2024-03-29T14:44:07;4.00;;;1.92;;
70148;SDS011;57514;52.164;5.282;2024-03-29T14:46:33;3.30;;;1.92;;
70148;SDS011;57514;52.164;5.282;2024-03-29T14:49:03;4.00;;;1.80;;
70148;SDS011;57514;52.164;5.282;2024-03-29T14:51:35;3.33;;;1.60;;
70148;SDS011;57514;52.164;5.282;2024-03-29T14:54:02;2.60;;;1.77;;
70148;SDS011;57514;52.164;5.282;2024-03-29T14:56:31;3.22;;;1.60;;
70148;SDS011;57514;52.164;5.282;2024-03-29T14:59:02;3.83;;;1.75;;